createdAt,value
2019-05-18T00:00:17.380Z,11.28
2019-05-18T00:01:17.404Z,11.28
2019-05-18T00:02:17.365Z,11.29
2019-05-18T00:03:17.348Z,11.14
2019-05-18T00:04:17.344Z,11.32
2019-05-18T00:05:17.327Z,11.13
2019-05-18T00:06:17.346Z,11.14
2019-05-18T00:07:17.308Z,11.17
2019-05-18T00:08:17.296Z,11.14
2019-05-18T00:09:17.295Z,11.13
2019-05-18T00:10:17.276Z,11.24
2019-05-18T00:11:17.287Z,11.10
2019-05-18T00:12:17.250Z,11.14
2019-05-18T00:13:17.248Z,11.28
2019-05-18T00:14:17.228Z,11.17
2019-05-18T00:15:17.219Z,11.27
2019-05-18T00:16:17.243Z,11.29
2019-05-18T00:17:24.931Z,11.13
2019-05-18T00:18:18.195Z,11.19
2019-05-18T00:19:17.177Z,11.17
2019-05-18T00:20:17.168Z,11.20
2019-05-18T00:21:17.181Z,11.17
2019-05-18T00:22:17.144Z,11.19
2019-05-18T00:23:17.133Z,11.13
2019-05-18T00:24:17.126Z,11.21
2019-05-18T00:25:17.119Z,11.17
2019-05-18T00:26:17.144Z,11.11
2019-05-18T00:27:17.090Z,11.11
2019-05-18T00:28:17.088Z,11.02
2019-05-18T00:29:17.069Z,11.10
2019-05-18T00:30:17.059Z,11.03
2019-05-18T00:31:17.077Z,11.03
2019-05-18T00:32:17.037Z,11.02
2019-05-18T00:33:17.024Z,10.99
2019-05-18T00:34:17.026Z,10.94
2019-05-18T00:35:17.005Z,11.01
2019-05-18T00:36:17.018Z,11.02
2019-05-18T00:37:16.983Z,10.91
2019-05-18T00:38:16.971Z,10.96
2019-05-18T00:39:16.965Z,10.81
2019-05-18T00:40:16.959Z,10.91
2019-05-18T00:41:16.969Z,10.86
2019-05-18T00:42:16.933Z,10.81
2019-05-18T00:43:16.922Z,10.81
2019-05-18T00:44:16.906Z,10.80
2019-05-18T00:45:16.900Z,10.81
2019-05-18T00:46:16.914Z,10.78
2019-05-18T00:47:16.879Z,10.76
2019-05-18T00:48:16.876Z,10.68
2019-05-18T00:49:16.854Z,10.81
2019-05-18T00:50:16.842Z,10.77
2019-05-18T00:51:16.867Z,10.77
2019-05-18T00:52:16.819Z,10.80
2019-05-18T00:53:16.812Z,10.84
2019-05-18T00:54:16.802Z,10.74
2019-05-18T00:55:16.785Z,10.71
2019-05-18T00:56:16.802Z,10.73
2019-05-18T00:57:16.782Z,10.74
2019-05-18T00:58:16.755Z,10.74
2019-05-18T00:59:16.749Z,10.74
2019-05-18T01:00:16.757Z,10.73
2019-05-18T01:01:16.753Z,10.77
2019-05-18T01:02:16.719Z,10.73
2019-05-18T01:03:16.704Z,10.73
2019-05-18T01:04:16.692Z,10.60
2019-05-18T01:05:16.681Z,10.63
2019-05-18T01:06:16.706Z,10.55
2019-05-18T01:07:16.660Z,10.55
2019-05-18T01:08:16.653Z,10.55
2019-05-18T01:09:16.643Z,10.60
2019-05-18T01:10:16.628Z,10.65
2019-05-18T01:11:16.642Z,10.81
2019-05-18T01:12:16.608Z,10.74
2019-05-18T01:13:16.611Z,10.78
2019-05-18T01:14:16.589Z,10.73
2019-05-18T01:15:16.612Z,10.77
2019-05-18T01:16:16.611Z,10.77
2019-05-18T01:17:16.553Z,10.77
2019-05-18T01:18:16.548Z,10.77
2019-05-18T01:19:16.534Z,10.76
2019-05-18T01:20:16.529Z,10.81
2019-05-18T01:21:16.544Z,10.86
2019-05-18T01:22:16.506Z,10.84
2019-05-18T01:23:16.488Z,10.89
2019-05-18T01:24:16.479Z,10.86
2019-05-18T01:25:16.462Z,10.77
2019-05-18T01:26:16.481Z,10.89
2019-05-18T01:27:16.447Z,10.88
2019-05-18T01:28:16.438Z,10.94
2019-05-18T01:29:16.424Z,11.06
2019-05-18T01:30:16.417Z,11.06
2019-05-18T01:31:16.434Z,11.06
2019-05-18T01:32:16.392Z,11.06
2019-05-18T01:33:16.384Z,10.98
2019-05-18T01:34:16.373Z,10.99
2019-05-18T01:35:16.358Z,10.96
2019-05-18T01:36:16.382Z,11.06
2019-05-18T01:37:16.345Z,11.01
2019-05-18T01:38:16.331Z,11.02
2019-05-18T01:39:16.316Z,11.10
2019-05-18T01:40:16.306Z,11.02
2019-05-18T01:41:16.324Z,11.07
2019-05-18T01:42:16.289Z,11.09
2019-05-18T01:43:16.293Z,10.99
2019-05-18T01:44:16.267Z,10.98
2019-05-18T01:45:17.618Z,11.02
2019-05-18T01:46:16.270Z,10.99
2019-05-18T01:47:16.235Z,10.95
2019-05-18T01:48:16.226Z,10.88
2019-05-18T01:49:16.208Z,10.81
2019-05-18T01:50:16.197Z,10.91
2019-05-18T01:51:16.234Z,10.89
2019-05-18T01:52:16.182Z,10.83
2019-05-18T01:53:16.170Z,10.86
2019-05-18T01:54:16.164Z,10.74
2019-05-18T01:55:16.147Z,10.73
2019-05-18T01:56:16.172Z,10.73
2019-05-18T01:57:16.133Z,10.76
2019-05-18T01:58:16.119Z,10.81
2019-05-18T01:59:16.104Z,10.77
2019-05-18T02:00:16.099Z,10.73
2019-05-18T02:01:16.107Z,10.74
2019-05-18T02:02:16.071Z,10.76
2019-05-18T02:03:16.061Z,10.78
2019-05-18T02:04:16.061Z,10.74
2019-05-18T02:05:16.042Z,10.81
2019-05-18T02:06:16.055Z,10.83
2019-05-18T02:07:16.018Z,10.76
2019-05-18T02:08:16.006Z,10.71
2019-05-18T02:09:15.997Z,10.59
2019-05-18T02:10:15.985Z,10.62
2019-05-18T02:11:15.999Z,10.63
2019-05-18T02:12:15.962Z,10.63
2019-05-18T02:13:15.957Z,10.71
2019-05-18T02:14:15.945Z,10.80
2019-05-18T02:15:15.939Z,10.70
2019-05-18T02:16:15.918Z,10.77
2019-05-18T02:17:15.937Z,10.77
2019-05-18T02:18:28.268Z,10.77
2019-05-18T02:19:16.891Z,10.73
2019-05-18T02:20:15.888Z,10.80
2019-05-18T02:21:15.875Z,10.80
2019-05-18T02:22:15.883Z,10.78
2019-05-18T02:23:15.853Z,10.80
2019-05-18T02:24:15.836Z,10.70
2019-05-18T02:25:15.827Z,10.70
2019-05-18T02:26:15.811Z,10.68
2019-05-18T02:27:15.830Z,10.71
2019-05-18T02:28:15.790Z,10.63
2019-05-18T02:29:15.791Z,10.59
2019-05-18T02:30:17.479Z,10.59
2019-05-18T02:31:15.763Z,10.60
2019-05-18T02:32:15.780Z,10.53
2019-05-18T02:33:15.740Z,10.43
2019-05-18T02:34:15.735Z,10.46
2019-05-18T02:35:15.716Z,10.26
2019-05-18T02:36:15.707Z,10.30
2019-05-18T02:37:15.728Z,10.24
2019-05-18T02:38:15.689Z,10.26
2019-05-18T02:39:15.675Z,10.26
2019-05-18T02:40:15.666Z,10.40
2019-05-18T02:41:15.653Z,10.39
2019-05-18T02:42:15.675Z,10.30
2019-05-18T02:43:15.637Z,10.28
2019-05-18T02:44:15.620Z,10.28
2019-05-18T02:45:15.608Z,10.24
2019-05-18T02:46:15.604Z,10.36
2019-05-18T02:47:15.620Z,10.24
2019-05-18T02:48:15.588Z,10.40
2019-05-18T02:49:15.612Z,10.52
2019-05-18T02:50:15.555Z,10.53
2019-05-18T02:51:15.544Z,10.53
2019-05-18T02:52:15.584Z,10.44
2019-05-18T02:53:15.547Z,10.52
2019-05-18T02:54:15.513Z,10.43
2019-05-18T02:55:26.415Z,10.42
2019-05-18T02:56:15.495Z,10.53
2019-05-18T02:57:15.507Z,10.56
2019-05-18T02:58:15.546Z,10.53
2019-05-18T02:59:15.468Z,10.46
2019-05-18T03:00:15.446Z,10.34
2019-05-18T03:01:15.439Z,10.28
2019-05-18T03:02:15.470Z,10.21
2019-05-18T03:03:15.426Z,10.21
2019-05-18T03:04:15.413Z,10.22
2019-05-18T03:05:15.394Z,10.28
2019-05-18T03:06:15.387Z,10.21
2019-05-18T03:07:15.410Z,10.34
2019-05-18T03:08:15.366Z,10.32
2019-05-18T03:09:15.356Z,10.25
2019-05-18T03:10:15.347Z,10.21
2019-05-18T03:11:15.336Z,10.24
2019-05-18T03:12:15.360Z,10.25
2019-05-18T03:13:15.318Z,10.28
2019-05-18T03:14:15.302Z,10.21
2019-05-18T03:15:15.298Z,10.10
2019-05-18T03:16:15.298Z,10.09
2019-05-18T03:17:15.310Z,10.14
2019-05-18T03:18:15.272Z,10.10
2019-05-18T03:19:15.247Z,10.24
2019-05-18T03:20:15.235Z,10.22
2019-05-18T03:21:15.231Z,10.09
2019-05-18T03:22:15.248Z,10.12
2019-05-18T03:23:15.203Z,10.15
2019-05-18T03:24:15.197Z,10.06
2019-05-18T03:25:15.183Z,9.97
2019-05-18T03:26:15.174Z,10.03
2019-05-18T03:27:15.194Z,9.99
2019-05-18T03:28:15.154Z,10.03
2019-05-18T03:29:15.139Z,10.17
2019-05-18T03:30:15.193Z,10.06
2019-05-18T03:31:15.140Z,10.01
2019-05-18T03:32:15.183Z,10.04
2019-05-18T03:33:15.100Z,10.10
2019-05-18T03:34:15.095Z,10.07
2019-05-18T03:35:15.075Z,10.04
2019-05-18T03:36:15.070Z,10.01
2019-05-18T03:37:15.083Z,9.96
2019-05-18T03:38:15.116Z,10.06
2019-05-18T03:39:15.034Z,10.12
2019-05-18T03:40:15.036Z,10.07
2019-05-18T03:41:15.011Z,10.18
2019-05-18T03:42:15.033Z,10.22
2019-05-18T03:43:14.998Z,10.12
2019-05-18T03:44:14.982Z,10.09
2019-05-18T03:45:14.976Z,10.06
2019-05-18T03:46:14.963Z,10.04
2019-05-18T03:47:14.995Z,10.03
2019-05-18T03:48:14.943Z,9.91
2019-05-18T03:49:26.447Z,9.86
2019-05-18T03:50:15.924Z,9.85
2019-05-18T03:51:14.905Z,9.89
2019-05-18T03:52:14.920Z,9.94
2019-05-18T03:53:18.135Z,10.01
2019-05-18T03:54:14.874Z,10.06
2019-05-18T03:55:14.864Z,10.10
2019-05-18T03:56:14.852Z,10.14
2019-05-18T03:57:14.869Z,10.28
2019-05-18T03:58:14.835Z,10.24
2019-05-18T03:59:14.827Z,10.32
2019-05-18T04:00:14.829Z,10.37
2019-05-18T04:01:14.800Z,10.30
2019-05-18T04:02:14.818Z,10.30
2019-05-18T04:03:14.783Z,10.30
2019-05-18T04:04:18.341Z,10.42
2019-05-18T04:05:14.760Z,10.30
2019-05-18T04:06:14.763Z,10.33
2019-05-18T04:07:14.776Z,10.42
2019-05-18T04:08:14.727Z,10.47
2019-05-18T04:09:14.713Z,10.59
2019-05-18T04:10:14.702Z,10.53
2019-05-18T04:11:14.707Z,10.59
2019-05-18T04:12:14.708Z,10.62
2019-05-18T04:13:14.671Z,10.62
2019-05-18T04:14:14.664Z,10.60
2019-05-18T04:15:14.652Z,10.53
2019-05-18T04:16:14.641Z,10.56
2019-05-18T04:17:14.662Z,10.55
2019-05-18T04:18:14.623Z,10.53
2019-05-18T04:19:14.609Z,10.51
2019-05-18T04:20:14.599Z,10.51
2019-05-18T04:21:14.582Z,10.59
2019-05-18T04:22:14.606Z,10.65
2019-05-18T04:23:14.569Z,10.51
2019-05-18T04:24:14.556Z,10.60
2019-05-18T04:25:14.546Z,10.63
2019-05-18T04:26:14.543Z,10.63
2019-05-18T04:27:14.553Z,10.66
2019-05-18T04:28:14.519Z,10.63
2019-05-18T04:29:14.502Z,10.62
2019-05-18T04:30:14.489Z,10.73
2019-05-18T04:31:14.484Z,10.70
2019-05-18T04:32:14.505Z,10.71
2019-05-18T04:33:14.479Z,10.71
2019-05-18T04:34:14.452Z,10.76
2019-05-18T04:35:14.435Z,10.62
2019-05-18T04:36:14.422Z,10.78
2019-05-18T04:37:14.440Z,10.81
2019-05-18T04:38:14.407Z,10.76
2019-05-18T04:39:14.398Z,10.74
2019-05-18T04:40:14.397Z,10.83
2019-05-18T04:41:14.373Z,10.84
2019-05-18T04:42:14.384Z,10.81
2019-05-18T04:43:14.359Z,10.81
2019-05-18T04:44:14.372Z,10.70
2019-05-18T04:45:14.335Z,10.80
2019-05-18T04:46:14.324Z,10.71
2019-05-18T04:47:14.339Z,10.91
2019-05-18T04:48:14.299Z,11.32
2019-05-18T04:49:14.289Z,11.78
2019-05-18T04:50:14.278Z,12.06
2019-05-18T04:51:14.265Z,12.49
2019-05-18T04:52:14.275Z,12.97
2019-05-18T04:53:14.244Z,13.03
2019-05-18T04:54:14.239Z,12.92
2019-05-18T04:55:14.232Z,12.88
2019-05-18T04:56:14.210Z,12.64
2019-05-18T04:57:14.228Z,12.69
2019-05-18T04:58:14.255Z,12.95
2019-05-18T04:59:14.178Z,12.93
2019-05-18T05:00:14.166Z,13.03
2019-05-18T05:01:14.168Z,13.18
2019-05-18T05:02:14.202Z,13.30
2019-05-18T05:03:14.144Z,13.37
2019-05-18T05:04:14.136Z,13.49
2019-05-18T05:05:14.119Z,13.63
2019-05-18T05:06:14.106Z,13.63
2019-05-18T05:07:14.096Z,13.61
2019-05-18T05:08:14.122Z,13.62
2019-05-18T05:09:14.078Z,13.63
2019-05-18T05:10:14.071Z,13.62
2019-05-18T05:11:14.049Z,13.65
2019-05-18T05:12:14.044Z,13.88
2019-05-18T05:13:14.054Z,13.84
2019-05-18T05:14:14.021Z,13.74
2019-05-18T05:15:14.008Z,13.73
2019-05-18T05:16:14.003Z,13.76
2019-05-18T05:17:13.998Z,13.70
2019-05-18T05:18:14.009Z,13.69
2019-05-18T05:19:13.972Z,13.40
2019-05-18T05:20:19.945Z,13.59
2019-05-18T05:21:14.951Z,13.74
2019-05-18T05:22:13.934Z,14.13
2019-05-18T05:23:13.959Z,14.07
2019-05-18T05:24:13.918Z,14.16
2019-05-18T05:25:13.944Z,14.44
2019-05-18T05:26:13.894Z,14.80
2019-05-18T05:27:13.919Z,14.95
2019-05-18T05:28:13.904Z,14.67
2019-05-18T05:29:13.864Z,14.78
2019-05-18T05:30:13.930Z,14.94
2019-05-18T05:31:13.844Z,15.05
2019-05-18T05:32:13.831Z,15.05
2019-05-18T05:33:13.847Z,14.93
2019-05-18T05:34:13.808Z,14.91
2019-05-18T05:35:13.794Z,14.83
2019-05-18T05:36:13.786Z,14.99
2019-05-18T05:37:13.785Z,14.90
2019-05-18T05:38:13.792Z,15.03
2019-05-18T05:39:13.756Z,15.27
2019-05-18T05:40:13.739Z,15.13
2019-05-18T05:41:16.702Z,15.11
2019-05-18T05:42:13.747Z,15.39
2019-05-18T05:43:13.753Z,15.82
2019-05-18T05:44:13.699Z,15.99
2019-05-18T05:45:13.695Z,15.78
2019-05-18T05:46:13.687Z,16.01
2019-05-18T05:47:13.671Z,16.04
2019-05-18T05:48:13.690Z,16.20
2019-05-18T05:49:13.643Z,16.18
2019-05-18T05:50:13.636Z,16.03
2019-05-18T05:51:13.627Z,15.97
2019-05-18T05:52:13.625Z,15.88
2019-05-18T05:53:13.628Z,15.48
2019-05-18T05:54:13.599Z,15.46
2019-05-18T05:55:13.583Z,16.15
2019-05-18T05:56:13.571Z,16.67
2019-05-18T05:57:13.560Z,16.89
2019-05-18T05:58:13.595Z,17.06
2019-05-18T05:59:13.540Z,17.10
2019-05-18T06:00:13.539Z,17.03
2019-05-18T06:01:13.516Z,17.04
2019-05-18T06:02:13.508Z,16.98
2019-05-18T06:03:13.518Z,17.41
2019-05-18T06:04:13.487Z,16.93
2019-05-18T06:05:13.488Z,17.08
2019-05-18T06:06:13.463Z,17.00
2019-05-18T06:07:13.459Z,17.44
2019-05-18T06:08:13.470Z,17.69
2019-05-18T06:09:13.439Z,17.91
2019-05-18T06:10:13.428Z,18.10
2019-05-18T06:11:13.418Z,18.33
2019-05-18T06:12:13.400Z,18.65
2019-05-18T06:13:13.415Z,18.73
2019-05-18T06:14:13.379Z,18.29
2019-05-18T06:15:13.369Z,18.79
2019-05-18T06:16:13.363Z,18.61
2019-05-18T06:17:13.354Z,18.87
2019-05-18T06:18:13.372Z,18.59
2019-05-18T06:19:13.328Z,18.21
2019-05-18T06:20:13.320Z,18.21
2019-05-18T06:21:13.310Z,18.46
2019-05-18T06:22:13.301Z,18.92
2019-05-18T06:23:13.312Z,18.91
2019-05-18T06:24:13.277Z,18.37
2019-05-18T06:25:13.265Z,18.62
2019-05-18T06:26:13.259Z,19.39
2019-05-18T06:27:13.242Z,19.14
2019-05-18T06:28:13.258Z,19.48
2019-05-18T06:29:13.219Z,19.53
2019-05-18T06:30:13.206Z,19.63
2019-05-18T06:31:13.202Z,19.50
2019-05-18T06:32:13.185Z,19.43
2019-05-18T06:33:13.230Z,19.21
2019-05-18T06:34:13.166Z,19.02
2019-05-18T06:35:13.154Z,18.79
2019-05-18T06:36:13.155Z,19.10
2019-05-18T06:37:13.151Z,19.31
2019-05-18T06:38:13.123Z,19.31
2019-05-18T06:39:13.143Z,19.42
2019-05-18T06:40:13.104Z,19.91
2019-05-18T06:41:13.136Z,20.43
2019-05-18T06:42:13.087Z,20.24
2019-05-18T06:43:13.088Z,20.24
2019-05-18T06:44:13.098Z,20.08
2019-05-18T06:45:13.056Z,20.13
2019-05-18T06:46:13.045Z,20.06
2019-05-18T06:47:13.033Z,20.12
2019-05-18T06:48:13.021Z,20.18
2019-05-18T06:49:13.034Z,19.54
2019-05-18T06:50:13.366Z,19.51
2019-05-18T06:51:12.996Z,18.99
2019-05-18T06:52:12.975Z,18.65
2019-05-18T06:53:12.970Z,18.15
2019-05-18T06:54:12.997Z,17.92
2019-05-18T06:55:12.947Z,18.43
2019-05-18T06:56:12.932Z,18.58
2019-05-18T06:57:12.923Z,18.74
2019-05-18T06:58:12.909Z,18.58
2019-05-18T06:59:16.312Z,19.36
2019-05-18T07:00:13.465Z,19.39
2019-05-18T07:01:12.882Z,20.09
2019-05-18T07:02:12.868Z,20.51
2019-05-18T07:03:12.891Z,20.77
2019-05-18T07:04:12.875Z,20.84
2019-05-18T07:05:12.840Z,20.86
2019-05-18T07:06:12.826Z,20.51
2019-05-18T07:07:12.816Z,20.16
2019-05-18T07:08:12.806Z,20.54
2019-05-18T07:09:14.382Z,20.54
2019-05-18T07:10:12.784Z,20.79
2019-05-18T07:11:12.775Z,21.02
2019-05-18T07:12:12.762Z,21.35
2019-05-18T07:13:12.754Z,20.69
2019-05-18T07:14:24.940Z,21.06
2019-05-18T07:15:13.727Z,20.86
2019-05-18T07:16:12.721Z,20.34
2019-05-18T07:17:12.714Z,20.51
2019-05-18T07:18:12.698Z,20.46
2019-05-18T07:19:12.730Z,20.87
2019-05-18T07:20:12.678Z,20.61
2019-05-18T07:21:21.849Z,20.95
2019-05-18T07:22:13.661Z,21.44
2019-05-18T07:23:12.647Z,21.61
2019-05-18T07:24:12.633Z,21.71
2019-05-18T07:25:12.652Z,21.42
2019-05-18T07:26:12.617Z,21.85
2019-05-18T07:27:12.607Z,22.16
2019-05-18T07:28:12.594Z,22.10
2019-05-18T07:29:12.581Z,22.13
2019-05-18T07:30:12.595Z,21.53
2019-05-18T07:31:12.562Z,21.81
2019-05-18T07:32:12.558Z,21.83
2019-05-18T07:33:12.546Z,21.66
2019-05-18T07:34:12.527Z,21.88
2019-05-18T07:35:12.549Z,22.44
2019-05-18T07:36:12.515Z,22.94
2019-05-18T07:37:12.510Z,22.28
2019-05-18T07:38:12.497Z,22.20
2019-05-18T07:39:12.478Z,22.49
2019-05-18T07:40:12.495Z,21.97
2019-05-18T07:41:12.466Z,22.01
2019-05-18T07:42:12.447Z,22.75
2019-05-18T07:43:12.435Z,22.07
2019-05-18T07:44:12.442Z,22.57
2019-05-18T07:45:12.459Z,22.28
2019-05-18T07:46:12.408Z,22.39
2019-05-18T07:47:12.410Z,21.95
2019-05-18T07:48:12.382Z,22.41
2019-05-18T07:49:12.373Z,22.49
2019-05-18T07:50:12.387Z,22.50
2019-05-18T07:51:12.350Z,22.41
2019-05-18T07:52:12.354Z,21.90
2019-05-18T07:53:12.343Z,22.25
2019-05-18T07:54:12.318Z,22.82
2019-05-18T07:55:12.334Z,23.29
2019-05-18T07:56:12.297Z,22.92
2019-05-18T07:57:12.295Z,23.15
2019-05-18T07:58:12.287Z,22.99
2019-05-18T07:59:12.268Z,23.42
2019-05-18T08:00:12.290Z,22.94
2019-05-18T08:01:12.250Z,22.94
2019-05-18T08:02:12.239Z,22.53
2019-05-18T08:03:12.226Z,22.92
2019-05-18T08:04:12.239Z,22.72
2019-05-18T08:05:12.232Z,23.07
2019-05-18T08:06:12.204Z,22.53
2019-05-18T08:07:12.190Z,22.41
2019-05-18T08:08:12.182Z,22.44
2019-05-18T08:09:12.183Z,23.01
2019-05-18T08:10:12.182Z,22.59
2019-05-18T08:11:12.148Z,22.07
2019-05-18T08:12:12.135Z,22.32
2019-05-18T08:13:12.133Z,22.10
2019-05-18T08:14:12.114Z,22.19
2019-05-18T08:15:12.134Z,21.95
2019-05-18T08:16:12.095Z,21.85
2019-05-18T08:17:12.082Z,21.99
2019-05-18T08:18:12.080Z,21.81
2019-05-18T08:19:12.074Z,22.65
2019-05-18T08:20:12.085Z,23.60
2019-05-18T08:21:12.047Z,23.31
2019-05-18T08:22:12.086Z,23.38
2019-05-18T08:23:12.026Z,23.92
2019-05-18T08:24:12.021Z,24.19
2019-05-18T08:25:12.043Z,25.09
2019-05-18T08:26:11.994Z,25.17
2019-05-18T08:27:11.983Z,24.32
2019-05-18T08:28:11.968Z,25.49
2019-05-18T08:29:11.960Z,25.89
2019-05-18T08:30:11.949Z,26.17
2019-05-18T08:31:11.965Z,27.29
2019-05-18T08:32:11.925Z,26.83
2019-05-18T08:33:11.917Z,27.82
2019-05-18T08:34:11.907Z,28.10
2019-05-18T08:35:11.918Z,28.16
2019-05-18T08:36:11.937Z,28.85
2019-05-18T08:37:11.877Z,28.60
2019-05-18T08:38:11.870Z,27.82
2019-05-18T08:39:11.877Z,27.21
2019-05-18T08:40:11.855Z,26.95
2019-05-18T08:41:11.881Z,25.84
2019-05-18T08:42:11.845Z,25.43
2019-05-18T08:43:11.824Z,26.22
2019-05-18T08:44:11.809Z,27.38
2019-05-18T08:45:11.923Z,26.95
2019-05-18T08:46:11.841Z,27.04
2019-05-18T08:47:11.783Z,27.06
2019-05-18T08:48:11.774Z,26.31
2019-05-18T08:49:11.760Z,26.64
2019-05-18T08:50:11.751Z,25.32
2019-05-18T08:51:11.770Z,25.28
2019-05-18T08:52:11.731Z,25.05
2019-05-18T08:53:11.724Z,25.86
2019-05-18T08:54:11.710Z,26.08
2019-05-18T08:55:14.995Z,25.77
2019-05-18T08:56:11.722Z,25.22
2019-05-18T08:57:11.685Z,25.07
2019-05-18T08:58:11.671Z,25.43
2019-05-18T08:59:11.662Z,25.53
2019-05-18T09:00:11.652Z,25.71
2019-05-18T09:01:11.669Z,26.52
2019-05-18T09:02:11.633Z,26.09
2019-05-18T09:03:11.623Z,26.59
2019-05-18T09:04:11.615Z,27.09
2019-05-18T09:05:11.614Z,26.83
2019-05-18T09:06:11.660Z,27.19
2019-05-18T09:07:11.587Z,26.61
2019-05-18T09:08:11.569Z,26.28
2019-05-18T09:09:11.619Z,25.97
2019-05-18T09:10:11.553Z,27.04
2019-05-18T09:11:11.581Z,27.62
2019-05-18T09:12:11.535Z,27.53
2019-05-18T09:13:11.523Z,27.89
2019-05-18T09:14:11.514Z,27.62
2019-05-18T09:15:11.505Z,28.01
2019-05-18T09:16:11.507Z,28.40
2019-05-18T09:17:11.512Z,28.40
2019-05-18T09:18:11.477Z,29.07
2019-05-18T09:19:11.465Z,28.48
2019-05-18T09:20:11.456Z,27.04
2019-05-18T09:21:11.449Z,26.67
2019-05-18T09:22:22.813Z,25.06
2019-05-18T09:23:12.427Z,24.71
2019-05-18T09:24:11.417Z,24.69
2019-05-18T09:25:11.426Z,25.16
2019-05-18T09:26:11.399Z,25.15
2019-05-18T09:27:11.419Z,25.94
2019-05-18T09:28:11.387Z,26.05
2019-05-18T09:29:11.373Z,25.79
2019-05-18T09:30:11.367Z,26.52
2019-05-18T09:31:11.351Z,27.58
2019-05-18T09:32:11.379Z,26.99
2019-05-18T09:33:11.334Z,27.21
2019-05-18T09:34:11.325Z,26.89
2019-05-18T09:35:11.319Z,27.41
2019-05-18T09:36:11.337Z,27.84
2019-05-18T09:37:11.325Z,27.42
2019-05-18T09:38:11.289Z,27.50
2019-05-18T09:39:11.279Z,27.70
2019-05-18T09:40:11.270Z,28.40
2019-05-18T09:41:11.268Z,28.84
2019-05-18T09:42:11.277Z,28.85
2019-05-18T09:43:11.248Z,28.75
2019-05-18T09:44:11.242Z,27.11
2019-05-18T09:45:11.219Z,26.62
2019-05-18T09:46:11.213Z,26.73
2019-05-18T09:47:11.230Z,26.50
2019-05-18T09:48:11.190Z,26.28
2019-05-18T09:49:11.188Z,25.77
2019-05-18T09:50:11.185Z,26.87
2019-05-18T09:51:11.166Z,27.31
2019-05-18T09:52:11.180Z,27.19
2019-05-18T09:53:11.152Z,26.61
2019-05-18T09:54:11.135Z,26.83
2019-05-18T09:55:11.128Z,27.48
2019-05-18T09:56:11.128Z,28.46
2019-05-18T09:57:11.138Z,28.69
2019-05-18T09:58:11.100Z,28.14
2019-05-18T09:59:11.100Z,27.62
2019-05-18T10:00:11.084Z,27.99
2019-05-18T10:01:11.077Z,28.10
2019-05-18T10:02:11.093Z,27.64
2019-05-18T10:03:11.067Z,26.04
2019-05-18T10:04:11.057Z,25.84
2019-05-18T10:05:11.044Z,25.43
2019-05-18T10:06:11.035Z,25.06
2019-05-18T10:07:11.053Z,26.27
2019-05-18T10:08:11.013Z,26.96
2019-05-18T10:09:11.003Z,27.16
2019-05-18T10:10:11.034Z,27.77
2019-05-18T10:11:10.996Z,27.84
2019-05-18T10:12:11.013Z,26.25
2019-05-18T10:13:10.972Z,25.44
2019-05-18T10:14:10.962Z,25.84
2019-05-18T10:15:10.951Z,26.28
2019-05-18T10:16:10.943Z,26.35
2019-05-18T10:17:10.986Z,25.94
2019-05-18T10:18:10.926Z,26.31
2019-05-18T10:19:10.920Z,27.48
2019-05-18T10:20:10.910Z,28.19
2019-05-18T10:21:10.899Z,27.76
2019-05-18T10:22:10.922Z,26.32
2019-05-18T10:23:13.679Z,26.08
2019-05-18T10:24:10.873Z,26.18
2019-05-18T10:25:10.867Z,25.98
2019-05-18T10:26:10.855Z,25.62
2019-05-18T10:27:10.870Z,26.61
2019-05-18T10:28:10.838Z,26.80
2019-05-18T10:29:10.826Z,26.92
2019-05-18T10:30:10.823Z,27.39
2019-05-18T10:31:10.835Z,27.53
2019-05-18T10:32:10.834Z,27.28
2019-05-18T10:33:10.795Z,27.77
2019-05-18T10:34:10.790Z,28.47
2019-05-18T10:35:10.813Z,27.53
2019-05-18T10:36:11.828Z,28.01
2019-05-18T10:37:10.786Z,27.51
2019-05-18T10:38:10.747Z,27.26
2019-05-18T10:39:10.738Z,26.99
2019-05-18T10:40:10.727Z,27.05
2019-05-18T10:41:10.740Z,27.35
2019-05-18T10:42:10.732Z,26.67
2019-05-18T10:43:10.719Z,26.92
2019-05-18T10:44:10.691Z,27.46
2019-05-18T10:45:10.695Z,28.17
2019-05-18T10:46:10.671Z,27.58
2019-05-18T10:47:10.688Z,27.06
2019-05-18T10:48:10.670Z,26.54
2019-05-18T10:49:10.644Z,26.39
2019-05-18T10:50:10.634Z,26.79
2019-05-18T10:51:10.623Z,26.06
2019-05-18T10:52:10.638Z,25.10
2019-05-18T10:53:10.608Z,25.01
2019-05-18T10:54:10.603Z,24.77
2019-05-18T10:55:10.593Z,24.92
2019-05-18T10:56:10.580Z,25.43
2019-05-18T10:57:10.598Z,25.82
2019-05-18T10:58:10.557Z,26.47
2019-05-18T10:59:17.047Z,27.19
2019-05-18T11:00:10.591Z,27.94
2019-05-18T11:01:10.535Z,28.97
2019-05-18T11:02:10.556Z,29.29
2019-05-18T11:03:10.512Z,30.00
2019-05-18T11:04:10.504Z,30.50
2019-05-18T11:05:10.494Z,31.21
2019-05-18T11:06:10.484Z,28.91
2019-05-18T11:07:10.498Z,26.79
2019-05-18T11:08:10.467Z,27.09
2019-05-18T11:09:10.515Z,26.81
2019-05-18T11:10:10.466Z,27.85
2019-05-18T11:11:10.440Z,28.01
2019-05-18T11:12:10.459Z,26.74
2019-05-18T11:13:10.420Z,27.01
2019-05-18T11:14:10.411Z,26.55
2019-05-18T11:15:10.406Z,26.80
2019-05-18T11:16:10.431Z,27.53
2019-05-18T11:17:10.411Z,28.80
2019-05-18T11:18:10.373Z,28.59
2019-05-18T11:19:10.367Z,29.07
2019-05-18T11:20:10.359Z,29.37
2019-05-18T11:21:10.346Z,29.65
2019-05-18T11:22:10.399Z,29.82
2019-05-18T11:23:10.331Z,30.46
2019-05-18T11:24:10.319Z,29.93
2019-05-18T11:25:10.309Z,28.47
2019-05-18T11:26:10.332Z,28.01
2019-05-18T11:27:10.339Z,27.79
2019-05-18T11:28:10.287Z,28.44
2019-05-18T11:29:10.283Z,28.63
2019-05-18T11:30:10.502Z,28.28
2019-05-18T11:31:10.263Z,27.31
2019-05-18T11:32:10.285Z,26.87
2019-05-18T11:33:10.239Z,27.84
2019-05-18T11:34:10.242Z,27.89
2019-05-18T11:35:10.244Z,27.94
2019-05-18T11:36:10.214Z,27.67
2019-05-18T11:37:10.235Z,26.94
2019-05-18T11:38:10.206Z,25.74
2019-05-18T11:39:10.191Z,25.07
2019-05-18T11:40:10.299Z,25.16
2019-05-18T11:41:10.170Z,25.20
2019-05-18T11:42:10.189Z,24.95
2019-05-18T11:43:10.152Z,24.75
2019-05-18T11:44:10.946Z,25.86
2019-05-18T11:45:10.145Z,27.33
2019-05-18T11:46:10.131Z,28.19
2019-05-18T11:47:10.148Z,27.96
2019-05-18T11:48:10.118Z,28.65
2019-05-18T11:49:10.101Z,28.75
2019-05-18T11:50:10.090Z,28.16
2019-05-18T11:51:10.078Z,28.62
2019-05-18T11:52:10.099Z,28.33
2019-05-18T11:53:10.065Z,27.38
2019-05-18T11:54:10.058Z,27.28
2019-05-18T11:55:10.042Z,27.09
2019-05-18T11:56:10.045Z,26.96
2019-05-18T11:57:10.028Z,27.16
2019-05-18T11:58:10.042Z,26.92
2019-05-18T11:59:10.024Z,27.24
2019-05-18T12:00:10.001Z,28.26
2019-05-18T12:01:09.995Z,28.32
2019-05-18T12:02:10.076Z,28.51
2019-05-18T12:03:10.008Z,29.26
2019-05-18T12:04:09.966Z,28.66
2019-05-18T12:05:09.956Z,28.90
2019-05-18T12:06:09.950Z,29.55
2019-05-18T12:07:09.943Z,30.40
2019-05-18T12:08:09.961Z,30.53
2019-05-18T12:09:09.922Z,30.74
2019-05-18T12:10:09.916Z,30.89
2019-05-18T12:11:09.904Z,30.18
2019-05-18T12:12:09.891Z,28.29
2019-05-18T12:13:09.912Z,27.94
2019-05-18T12:14:09.882Z,28.32
2019-05-18T12:15:09.869Z,28.56
2019-05-18T12:16:09.862Z,28.19
2019-05-18T12:17:09.853Z,27.76
2019-05-18T12:18:09.872Z,28.17
2019-05-18T12:19:09.854Z,29.11
2019-05-18T12:20:09.915Z,29.33
2019-05-18T12:21:09.815Z,28.58
2019-05-18T12:22:09.806Z,28.60
2019-05-18T12:23:09.848Z,27.79
2019-05-18T12:24:15.513Z,28.63
2019-05-18T12:25:10.778Z,29.08
2019-05-18T12:26:09.774Z,29.08
2019-05-18T12:27:09.768Z,28.77
2019-05-18T12:28:09.785Z,29.45
2019-05-18T12:29:09.741Z,29.22
2019-05-18T12:30:09.736Z,29.57
2019-05-18T12:31:09.730Z,30.19
2019-05-18T12:32:09.717Z,30.30
2019-05-18T12:33:09.734Z,30.21
2019-05-18T12:34:09.701Z,30.34
2019-05-18T12:35:09.691Z,31.24
2019-05-18T12:36:09.682Z,30.68
2019-05-18T12:37:09.680Z,30.33
2019-05-18T12:38:09.694Z,29.99
2019-05-18T12:39:09.676Z,29.56
2019-05-18T12:40:09.655Z,29.26
2019-05-18T12:41:09.645Z,29.94
2019-05-18T12:42:09.632Z,29.70
2019-05-18T12:43:09.663Z,30.26
2019-05-18T12:44:09.639Z,30.14
2019-05-18T12:45:09.608Z,28.54
2019-05-18T12:46:09.596Z,28.29
2019-05-18T12:47:09.586Z,29.31
2019-05-18T12:48:09.606Z,30.05
2019-05-18T12:49:09.572Z,29.78
2019-05-18T12:50:09.613Z,29.89
2019-05-18T12:51:09.562Z,30.34
2019-05-18T12:52:09.541Z,29.87